createdAt,value
2018-12-27T00:01:27.669Z,28.70
2018-12-27T00:03:56.723Z,30.55
2018-12-27T00:06:25.202Z,28.43
2018-12-27T00:08:53.686Z,29.60
2018-12-27T00:11:22.172Z,29.10
2018-12-27T00:13:50.656Z,30.00
2018-12-27T00:16:19.197Z,26.13
2018-12-27T00:18:47.676Z,26.87
2018-12-27T00:21:16.158Z,30.40
2018-12-27T00:23:45.200Z,29.27
2018-12-27T00:26:13.688Z,29.63
2018-12-27T00:28:42.732Z,30.20
2018-12-27T00:31:11.369Z,29.00
2018-12-27T00:33:40.583Z,28.77
2018-12-27T00:36:09.817Z,30.77
2018-12-27T00:38:38.437Z,30.35
2018-12-27T00:41:07.053Z,29.33
2018-12-27T00:43:36.285Z,29.70
2018-12-27T00:46:05.037Z,31.37
2018-12-27T00:48:33.733Z,32.70
2018-12-27T00:51:02.965Z,31.48
2018-12-27T00:53:31.603Z,29.17
2018-12-27T00:56:00.223Z,28.73
2018-12-27T00:58:28.859Z,30.87
2018-12-27T01:00:57.497Z,30.57
2018-12-27T01:03:26.136Z,30.07
2018-12-27T01:05:54.756Z,31.93
2018-12-27T01:08:23.411Z,29.57
2018-12-27T01:10:52.015Z,30.93
2018-12-27T01:13:20.682Z,30.03
2018-12-27T01:15:49.317Z,31.63
2018-12-27T01:18:17.956Z,31.17
2018-12-27T01:20:46.580Z,29.43
2018-12-27T01:23:15.226Z,31.87
2018-12-27T01:25:43.860Z,31.30
2018-12-27T01:28:12.520Z,30.97
2018-12-27T01:30:41.727Z,30.80
2018-12-27T01:33:10.384Z,29.23
2018-12-27T01:35:39.056Z,30.33
2018-12-27T01:38:07.716Z,28.40
2018-12-27T01:40:36.336Z,28.63
2018-12-27T01:43:04.975Z,27.23
2018-12-27T01:45:33.596Z,29.10
2018-12-27T01:48:02.216Z,28.37
2018-12-27T01:50:30.852Z,27.03
2018-12-27T01:52:59.468Z,28.27
2018-12-27T01:55:28.104Z,27.67
2018-12-27T01:57:56.742Z,27.77
2018-12-27T02:00:26.016Z,26.40
2018-12-27T02:02:54.641Z,30.50
2018-12-27T02:05:23.867Z,27.87
2018-12-27T02:07:53.065Z,27.75
2018-12-27T02:10:22.295Z,28.15
2018-12-27T02:12:50.907Z,26.53
2018-12-27T02:15:19.523Z,27.00
2018-12-27T02:17:48.150Z,25.93
2018-12-27T02:20:16.776Z,26.07
2018-12-27T02:22:45.404Z,24.57
2018-12-27T02:25:14.034Z,25.13
2018-12-27T02:27:43.234Z,27.52
2018-12-27T02:30:11.865Z,26.10
2018-12-27T02:32:40.488Z,25.57
2018-12-27T02:35:09.146Z,27.30
2018-12-27T02:37:37.770Z,26.23
2018-12-27T02:40:06.455Z,25.13
2018-12-27T02:42:35.081Z,25.57
2018-12-27T02:45:03.709Z,24.27
2018-12-27T02:47:32.909Z,24.12
2018-12-27T02:50:01.547Z,21.80
2018-12-27T02:52:33.653Z,23.92
2018-12-27T02:55:02.356Z,21.80
2018-12-27T02:57:30.989Z,24.27
2018-12-27T02:59:59.607Z,21.67
2018-12-27T03:02:28.833Z,24.00
2018-12-27T03:04:58.044Z,25.48
2018-12-27T03:07:27.299Z,23.55
2018-12-27T03:09:56.576Z,22.90
2018-12-27T03:12:25.247Z,23.05
2018-12-27T03:14:54.456Z,22.82
2018-12-27T03:17:23.674Z,24.45
2018-12-27T03:19:52.881Z,22.52
2018-12-27T03:22:21.520Z,23.23
2018-12-27T03:24:50.726Z,23.62
2018-12-27T03:27:19.925Z,23.40
2018-12-27T03:29:48.556Z,23.27
2018-12-27T03:32:17.777Z,22.70
2018-12-27T03:34:46.403Z,21.23
2018-12-27T03:37:15.328Z,21.02
2018-12-27T03:39:43.998Z,21.20
2018-12-27T03:42:12.628Z,21.40
2018-12-27T03:44:41.257Z,20.07
2018-12-27T03:47:09.916Z,24.20
2018-12-27T03:49:39.297Z,20.17
2018-12-27T03:52:07.943Z,22.02
2018-12-27T03:54:36.580Z,20.57
2018-12-27T03:57:05.256Z,18.37
2018-12-27T03:59:33.889Z,22.27
2018-12-27T04:02:02.623Z,19.50
2018-12-27T04:04:31.830Z,18.65
2018-12-27T04:07:00.461Z,19.17
2018-12-27T04:09:29.165Z,19.23
2018-12-27T04:11:58.399Z,16.85
2018-12-27T04:14:27.605Z,16.55
2018-12-27T04:16:56.091Z,17.40
2018-12-27T04:19:25.159Z,18.07
2018-12-27T04:21:53.617Z,15.27
2018-12-27T04:24:22.652Z,15.90
2018-12-27T04:26:51.718Z,15.38
2018-12-27T04:29:20.781Z,15.80
2018-12-27T04:31:50.657Z,16.02
2018-12-27T04:34:24.148Z,17.77
2018-12-27T04:36:53.241Z,16.03
2018-12-27T04:39:21.707Z,15.75
2018-12-27T04:41:51.388Z,16.20
2018-12-27T04:44:20.838Z,16.07
2018-12-27T04:46:49.891Z,15.25
2018-12-27T04:49:18.950Z,16.25
2018-12-27T04:51:47.998Z,16.73
2018-12-27T04:54:17.064Z,14.15
2018-12-27T04:56:46.109Z,12.60
2018-12-27T04:59:15.172Z,15.05
2018-12-27T05:01:44.223Z,15.15
2018-12-27T05:04:18.194Z,15.43
2018-12-27T05:06:44.068Z,15.88
2018-12-27T05:09:13.124Z,14.38
2018-12-27T05:11:42.176Z,12.82
2018-12-27T05:14:11.232Z,14.38
2018-12-27T05:16:40.283Z,16.07
2018-12-27T05:19:09.366Z,15.83
2018-12-27T05:21:38.424Z,15.75
2018-12-27T05:24:06.898Z,15.15
2018-12-27T05:26:35.953Z,14.95
2018-12-27T05:29:04.438Z,15.67
2018-12-27T05:31:33.486Z,14.80
2018-12-27T05:34:02.629Z,15.72
2018-12-27T05:36:31.815Z,15.50
2018-12-27T05:39:00.882Z,17.57
2018-12-27T05:41:29.946Z,16.05
2018-12-27T05:43:59.010Z,18.10
2018-12-27T05:46:28.090Z,16.12
2018-12-27T05:48:57.312Z,16.42
2018-12-27T05:51:26.450Z,20.52
2018-12-27T05:53:54.932Z,20.15
2018-12-27T05:56:23.976Z,16.80
2018-12-27T05:58:53.045Z,18.65
2018-12-27T06:01:22.120Z,17.25
2018-12-27T06:03:51.177Z,16.82
2018-12-27T06:06:20.266Z,18.10
2018-12-27T06:08:49.320Z,17.12
2018-12-27T06:11:17.801Z,16.70
2018-12-27T06:13:46.857Z,18.50
2018-12-27T06:16:15.925Z,18.02
2018-12-27T06:18:44.995Z,16.40
2018-12-27T06:21:13.555Z,18.87
2018-12-27T06:23:42.617Z,18.35
2018-12-27T06:26:11.687Z,18.32
2018-12-27T06:28:40.370Z,19.07
2018-12-27T06:31:08.845Z,21.40
2018-12-27T06:33:37.901Z,18.20
2018-12-27T06:36:06.973Z,18.52
2018-12-27T06:38:35.459Z,20.23
2018-12-27T06:41:04.539Z,20.23
2018-12-27T06:43:33.010Z,22.77
2018-12-27T06:46:01.485Z,23.20
2018-12-27T06:48:30.528Z,21.30
2018-12-27T06:50:59.602Z,25.00
2018-12-27T06:53:28.077Z,24.73
2018-12-27T06:55:57.148Z,21.93
2018-12-27T06:58:26.198Z,20.35
2018-12-27T07:00:55.271Z,20.43
2018-12-27T07:03:24.331Z,18.45
2018-12-27T07:05:53.388Z,20.17
2018-12-27T07:08:22.468Z,18.65
2018-12-27T07:10:51.566Z,17.05
2018-12-27T07:13:20.048Z,18.67
2018-12-27T07:15:49.106Z,17.65
2018-12-27T07:18:18.167Z,16.87
2018-12-27T07:20:46.702Z,16.52
2018-12-27T07:23:15.768Z,15.70
2018-12-27T07:25:44.936Z,15.63
2018-12-27T07:28:14.010Z,16.93
2018-12-27T07:30:42.483Z,17.43
2018-12-27T07:33:11.656Z,14.93
2018-12-27T07:35:40.727Z,16.00
2018-12-27T07:38:10.053Z,17.62
2018-12-27T07:40:38.808Z,17.50
2018-12-27T07:43:08.058Z,17.62
2018-12-27T07:45:36.582Z,18.10
2018-12-27T07:48:05.450Z,16.07
2018-12-27T07:50:33.954Z,16.30
2018-12-27T07:53:02.417Z,23.00
2018-12-27T07:55:30.935Z,17.23
2018-12-27T07:57:59.399Z,17.83
2018-12-27T08:00:27.857Z,18.70
2018-12-27T08:02:56.336Z,18.60
2018-12-27T08:05:24.791Z,18.87
2018-12-27T08:07:53.338Z,17.97
2018-12-27T08:10:21.804Z,17.20
2018-12-27T08:12:50.287Z,18.07
2018-12-27T08:15:18.767Z,19.00
2018-12-27T08:17:47.273Z,17.20
2018-12-27T08:20:15.801Z,20.07
2018-12-27T08:22:44.287Z,19.03
2018-12-27T08:25:12.753Z,17.87
2018-12-27T08:27:41.245Z,17.97
2018-12-27T08:30:09.783Z,18.53
2018-12-27T08:32:38.279Z,19.80
2018-12-27T08:35:11.426Z,19.90
2018-12-27T08:37:37.159Z,22.20
2018-12-27T08:40:06.082Z,21.37
2018-12-27T08:42:34.567Z,21.70
2018-12-27T08:45:03.509Z,20.70
2018-12-27T08:47:31.989Z,21.97
2018-12-27T08:50:00.457Z,20.93
2018-12-27T08:52:48.268Z,21.00
2018-12-27T08:55:16.750Z,19.10
2018-12-27T08:57:45.222Z,19.23
2018-12-27T09:00:13.702Z,20.70
2018-12-27T09:02:42.171Z,21.50
2018-12-27T09:05:10.657Z,20.37
2018-12-27T09:07:39.128Z,19.50
2018-12-27T09:10:07.663Z,22.40
2018-12-27T09:12:36.244Z,21.60
2018-12-27T09:15:05.049Z,20.33
2018-12-27T09:17:33.528Z,21.97
2018-12-27T09:20:02.019Z,19.90
2018-12-27T09:22:30.582Z,20.60
2018-12-27T09:24:59.058Z,19.40
2018-12-27T09:27:27.536Z,19.40
2018-12-27T09:29:56.006Z,19.27
2018-12-27T09:32:24.504Z,17.07
2018-12-27T09:34:53.048Z,17.23
2018-12-27T09:37:21.516Z,16.47
2018-12-27T09:39:49.989Z,16.13
2018-12-27T09:42:18.445Z,15.63
2018-12-27T09:44:46.936Z,16.63
2018-12-27T09:47:15.401Z,15.10
2018-12-27T09:49:43.886Z,13.77
2018-12-27T09:52:12.938Z,14.25
2018-12-27T09:54:41.422Z,14.03
2018-12-27T09:57:09.905Z,13.95
2018-12-27T09:59:38.450Z,13.77
2018-12-27T10:02:06.918Z,14.87
2018-12-27T10:04:35.396Z,16.53
2018-12-27T10:07:03.862Z,15.20
2018-12-27T10:09:32.342Z,16.60
2018-12-27T10:12:00.809Z,14.33
2018-12-27T10:14:29.287Z,14.53
2018-12-27T10:16:57.749Z,13.08
2018-12-27T10:19:26.219Z,14.17
2018-12-27T10:21:54.693Z,13.27
2018-12-27T10:24:23.156Z,12.13
2018-12-27T10:26:51.637Z,13.97
2018-12-27T10:29:20.109Z,15.00
2018-12-27T10:31:48.589Z,11.48
2018-12-27T10:34:17.049Z,13.00
2018-12-27T10:36:46.124Z,11.93
2018-12-27T10:39:14.593Z,14.13
2018-12-27T10:41:43.066Z,9.95
2018-12-27T10:44:11.533Z,12.23
2018-12-27T10:46:40.009Z,11.83
2018-12-27T10:49:09.053Z,11.38
2018-12-27T10:51:38.113Z,12.28
2018-12-27T10:54:07.167Z,11.83
2018-12-27T10:56:36.245Z,13.05
2018-12-27T10:59:04.699Z,12.33
2018-12-27T11:01:33.184Z,12.25
2018-12-27T11:04:01.668Z,11.07
2018-12-27T11:06:30.746Z,10.08
2018-12-27T11:08:59.234Z,11.50
2018-12-27T11:11:28.378Z,11.63
2018-12-27T11:13:57.506Z,10.15
2018-12-27T11:16:26.586Z,10.43
2018-12-27T11:18:55.656Z,10.85
2018-12-27T11:21:24.118Z,9.43
2018-12-27T11:23:53.192Z,8.70
2018-12-27T11:26:22.220Z,9.75
2018-12-27T11:28:50.695Z,9.07
2018-12-27T11:31:19.742Z,9.50
2018-12-27T11:33:48.196Z,8.40
2018-12-27T11:36:17.632Z,9.15
2018-12-27T11:38:46.775Z,9.88
2018-12-27T11:41:15.808Z,8.10
2018-12-27T11:43:44.870Z,8.60
2018-12-27T11:46:13.900Z,9.68
2018-12-27T11:48:42.928Z,7.20
2018-12-27T11:51:12.070Z,8.55
2018-12-27T11:53:41.096Z,9.23
2018-12-27T11:56:10.161Z,8.70
2018-12-27T11:58:38.675Z,8.67
2018-12-27T12:01:07.738Z,9.25
2018-12-27T12:03:36.768Z,9.00
2018-12-27T12:06:05.806Z,8.93
2018-12-27T12:08:34.860Z,8.78
2018-12-27T12:11:03.897Z,7.58
2018-12-27T12:13:33.026Z,6.05
2018-12-27T12:16:02.057Z,7.08
2018-12-27T12:18:31.097Z,7.30
2018-12-27T12:21:00.141Z,7.25
2018-12-27T12:23:29.251Z,7.00
2018-12-27T12:25:58.265Z,6.75
2018-12-27T12:28:27.317Z,7.00
2018-12-27T12:30:56.345Z,8.35
2018-12-27T12:33:25.409Z,6.67
2018-12-27T12:35:54.421Z,7.97
2018-12-27T12:38:24.114Z,6.85
2018-12-27T12:40:53.140Z,7.20
2018-12-27T12:43:22.199Z,7.40
2018-12-27T12:45:51.220Z,7.03
2018-12-27T12:48:20.255Z,7.62
2018-12-27T12:50:49.385Z,7.87
2018-12-27T12:53:18.539Z,7.58
2018-12-27T12:55:47.563Z,6.58
2018-12-27T12:58:16.615Z,8.00
2018-12-27T13:00:45.648Z,6.62
2018-12-27T13:03:14.688Z,8.03
2018-12-27T13:05:43.766Z,6.40
2018-12-27T13:08:12.782Z,6.62
2018-12-27T13:10:41.817Z,6.20
2018-12-27T13:13:10.855Z,6.08
2018-12-27T13:15:39.905Z,6.45
2018-12-27T13:18:08.940Z,7.30
2018-12-27T13:20:37.982Z,6.60
2018-12-27T13:23:07.024Z,6.67
2018-12-27T13:25:36.050Z,7.17
2018-12-27T13:28:05.134Z,8.25
2018-12-27T13:30:34.168Z,7.60
2018-12-27T13:33:03.222Z,7.35
2018-12-27T13:35:32.296Z,8.83
2018-12-27T13:38:01.381Z,7.53
2018-12-27T13:40:30.423Z,8.38
2018-12-27T13:42:59.467Z,7.85
2018-12-27T13:45:28.502Z,7.30
2018-12-27T13:47:57.527Z,7.72
2018-12-27T13:50:26.564Z,7.12
2018-12-27T13:52:55.596Z,8.43
2018-12-27T13:55:24.634Z,9.38
2018-12-27T13:57:53.675Z,8.45
2018-12-27T14:00:22.720Z,7.85
2018-12-27T14:02:53.571Z,8.60
2018-12-27T14:05:22.620Z,8.18
2018-12-27T14:07:51.655Z,8.50
2018-12-27T14:10:20.700Z,7.03
2018-12-27T14:12:49.724Z,7.70
2018-12-27T14:15:18.785Z,17.70
2018-12-27T14:17:47.823Z,9.65
2018-12-27T14:20:16.866Z,8.35
2018-12-27T14:22:45.990Z,9.78
2018-12-27T14:25:15.019Z,8.55
2018-12-27T14:27:44.088Z,9.63
2018-12-27T14:30:13.210Z,9.70
2018-12-27T14:32:42.431Z,11.45
2018-12-27T14:35:11.510Z,10.28
2018-12-27T14:37:40.598Z,8.53
2018-12-27T14:40:09.761Z,8.85
2018-12-27T14:42:38.802Z,9.85
2018-12-27T14:45:07.840Z,10.95
2018-12-27T14:47:36.902Z,9.05
2018-12-27T14:50:07.067Z,9.73
2018-12-27T14:52:36.133Z,10.75
2018-12-27T14:55:05.640Z,10.70
2018-12-27T14:57:34.715Z,11.97
2018-12-27T15:00:05.909Z,12.03
2018-12-27T15:02:34.977Z,10.95
2018-12-27T15:05:05.169Z,11.78
2018-12-27T15:07:34.301Z,11.20
2018-12-27T15:10:03.723Z,17.15
2018-12-27T15:12:32.779Z,10.25
2018-12-27T15:15:01.820Z,12.33
2018-12-27T15:17:30.894Z,11.28
2018-12-27T15:19:59.952Z,11.78
2018-12-27T15:22:29.032Z,10.90
2018-12-27T15:24:58.082Z,11.38
2018-12-27T15:27:27.121Z,10.38
2018-12-27T15:29:56.214Z,13.72
2018-12-27T15:32:25.260Z,12.23
2018-12-27T15:34:54.327Z,10.95
2018-12-27T15:37:23.417Z,11.73
2018-12-27T15:39:52.544Z,9.23
2018-12-27T15:42:21.624Z,11.20
2018-12-27T15:44:50.667Z,10.68
2018-12-27T15:47:19.743Z,11.88
2018-12-27T15:49:48.873Z,10.55
2018-12-27T15:52:17.929Z,11.25
2018-12-27T15:54:46.989Z,10.20
2018-12-27T15:57:16.043Z,9.13
2018-12-27T15:59:45.124Z,10.08
2018-12-27T16:02:14.154Z,12.05
2018-12-27T16:04:43.217Z,10.85
2018-12-27T16:07:12.269Z,9.83
2018-12-27T16:09:41.321Z,12.10
2018-12-27T16:12:10.353Z,9.48
2018-12-27T16:14:39.865Z,11.18
2018-12-27T16:17:09.161Z,9.50
2018-12-27T16:19:38.199Z,8.43
2018-12-27T16:22:07.314Z,9.75
2018-12-27T16:24:36.395Z,10.35
2018-12-27T16:27:05.450Z,11.38
2018-12-27T16:29:34.518Z,9.05
2018-12-27T16:32:03.549Z,7.87
2018-12-27T16:34:32.643Z,7.28
2018-12-27T16:37:08.690Z,10.82
2018-12-27T16:39:32.504Z,10.72
2018-12-27T16:42:01.611Z,9.93
2018-12-27T16:44:30.668Z,11.38
2018-12-27T16:46:59.721Z,13.08
2018-12-27T16:49:28.840Z,13.58
2018-12-27T16:51:57.946Z,14.13
2018-12-27T16:54:27.014Z,13.65
2018-12-27T16:56:56.062Z,12.58
2018-12-27T16:59:25.138Z,13.38
2018-12-27T17:01:54.194Z,11.38
2018-12-27T17:04:23.267Z,11.18
2018-12-27T17:06:52.344Z,11.15
2018-12-27T17:09:21.452Z,13.83
2018-12-27T17:11:50.540Z,10.82
2018-12-27T17:14:19.584Z,16.23
2018-12-27T17:16:48.065Z,13.58
2018-12-27T17:19:17.152Z,9.90
2018-12-27T17:21:46.206Z,10.98
2018-12-27T17:24:14.677Z,11.93
2018-12-27T17:26:43.736Z,11.12
2018-12-27T17:29:12.933Z,11.73
2018-12-27T17:31:42.049Z,10.95
2018-12-27T17:34:11.103Z,13.13
2018-12-27T17:36:40.241Z,10.08
2018-12-27T17:39:12.275Z,11.63
2018-12-27T17:41:41.342Z,11.00
2018-12-27T17:44:10.385Z,11.12
2018-12-27T17:46:39.454Z,12.73
2018-12-27T17:49:08.520Z,12.93
2018-12-27T17:51:37.687Z,10.48
2018-12-27T17:54:06.818Z,11.38
2018-12-27T17:56:35.873Z,14.53
2018-12-27T17:59:04.948Z,14.10
2018-12-27T18:01:34.007Z,12.25
2018-12-27T18:04:03.047Z,9.90
2018-12-27T18:06:32.120Z,11.90
2018-12-27T18:09:00.597Z,11.87
2018-12-27T18:11:29.669Z,11.57
2018-12-27T18:13:58.711Z,10.13
2018-12-27T18:16:27.208Z,11.12
2018-12-27T18:18:56.266Z,10.58
2018-12-27T18:21:25.353Z,11.35
2018-12-27T18:23:53.818Z,12.05
2018-12-27T18:26:22.857Z,12.93
2018-12-27T18:28:51.950Z,12.45
2018-12-27T18:31:21.004Z,12.55
2018-12-27T18:33:50.060Z,13.15
2018-12-27T18:36:19.301Z,13.80
2018-12-27T18:38:48.351Z,12.63
2018-12-27T18:41:17.421Z,12.70
2018-12-27T18:43:46.456Z,12.60
2018-12-27T18:46:14.936Z,12.05
2018-12-27T18:48:44.006Z,14.58
2018-12-27T18:51:13.060Z,13.65
2018-12-27T18:53:42.120Z,13.85
2018-12-27T18:56:10.618Z,12.47
2018-12-27T18:58:39.723Z,13.80
2018-12-27T19:01:08.806Z,13.90
2018-12-27T19:03:37.854Z,13.00
2018-12-27T19:06:06.996Z,13.95
2018-12-27T19:08:35.472Z,14.50
2018-12-27T19:11:40.238Z,14.93
2018-12-27T19:14:08.723Z,16.27
2018-12-27T19:16:37.783Z,18.62
2018-12-27T19:19:06.856Z,15.15
2018-12-27T19:21:38.760Z,14.67
2018-12-27T19:24:07.844Z,14.13
2018-12-27T19:26:36.304Z,13.35
2018-12-27T19:29:04.819Z,14.78
2018-12-27T19:31:33.357Z,16.83
2018-12-27T19:34:02.413Z,17.10
2018-12-27T19:36:31.497Z,17.15
2018-12-27T19:39:00.567Z,15.85
2018-12-27T19:41:29.047Z,14.43
2018-12-27T19:43:57.525Z,14.87
2018-12-27T19:46:26.568Z,19.32
2018-12-27T19:48:55.037Z,16.87
2018-12-27T19:51:24.100Z,19.23
2018-12-27T19:53:52.610Z,19.77
2018-12-27T19:56:21.086Z,19.00
2018-12-27T19:58:49.633Z,18.87
2018-12-27T20:01:18.127Z,18.00
2018-12-27T20:03:46.597Z,21.57
2018-12-27T20:06:15.087Z,19.70
2018-12-27T20:08:43.557Z,21.07
2018-12-27T20:11:12.026Z,18.47
2018-12-27T20:13:40.553Z,18.17
2018-12-27T20:16:09.162Z,17.67
2018-12-27T20:18:38.228Z,18.05
2018-12-27T20:21:06.695Z,17.70
2018-12-27T20:23:35.155Z,17.57
2018-12-27T20:26:03.662Z,18.37
2018-12-27T20:28:32.760Z,16.07
2018-12-27T20:31:01.580Z,16.57
2018-12-27T20:33:30.062Z,16.47
2018-12-27T20:35:58.647Z,17.27
2018-12-27T20:38:27.144Z,16.50
2018-12-27T20:40:55.622Z,16.57
2018-12-27T20:43:24.111Z,18.13
2018-12-27T20:45:52.588Z,18.67
2018-12-27T20:48:21.136Z,18.87
2018-12-27T20:50:50.222Z,18.07
2018-12-27T20:53:21.940Z,18.20
2018-12-27T20:55:50.994Z,19.90
2018-12-27T20:58:19.473Z,17.70
2018-12-27T21:00:47.962Z,19.13
2018-12-27T21:03:16.513Z,19.67
2018-12-27T21:05:45.002Z,18.30
2018-12-27T21:08:14.348Z,18.65
2018-12-27T21:10:43.521Z,16.93
2018-12-27T21:13:12.581Z,19.55
2018-12-27T21:15:41.092Z,18.60
2018-12-27T21:18:09.548Z,18.70
2018-12-27T21:20:38.599Z,18.30
2018-12-27T21:23:07.114Z,19.17
2018-12-27T21:25:36.174Z,16.95
2018-12-27T21:28:04.658Z,19.23
2018-12-27T21:30:33.154Z,17.50
2018-12-27T21:33:01.616Z,16.50
2018-12-27T21:35:30.105Z,16.67
2018-12-27T21:37:58.571Z,15.30
2018-12-27T21:40:27.039Z,16.60
2018-12-27T21:42:55.522Z,17.57
2018-12-27T21:45:23.987Z,14.97
2018-12-27T21:47:52.448Z,16.20
2018-12-27T21:50:20.991Z,17.10
2018-12-27T21:52:50.106Z,13.65
2018-12-27T21:55:18.605Z,14.77
2018-12-27T21:57:47.083Z,15.07
2018-12-27T22:00:15.669Z,16.27
2018-12-27T22:02:44.217Z,13.37
2018-12-27T22:05:12.791Z,13.93
2018-12-27T22:07:41.291Z,15.57
2018-12-27T22:10:09.772Z,16.70
2018-12-27T22:12:38.269Z,13.30
2018-12-27T22:15:06.822Z,15.10
2018-12-27T22:17:35.285Z,15.40
2018-12-27T22:20:03.917Z,16.03
2018-12-27T22:22:32.979Z,15.78
2018-12-27T22:25:01.441Z,16.57
2018-12-27T22:27:29.930Z,17.33
2018-12-27T22:29:58.977Z,15.35
2018-12-27T22:32:27.467Z,15.83
2018-12-27T22:34:55.936Z,15.90
2018-12-27T22:37:24.403Z,14.73
2018-12-27T22:39:52.898Z,14.93
2018-12-27T22:42:21.951Z,14.68
2018-12-27T22:44:50.407Z,16.33
2018-12-27T22:47:18.895Z,14.67
2018-12-27T22:49:47.956Z,16.67
2018-12-27T22:52:16.436Z,14.00
2018-12-27T22:54:44.897Z,16.27
2018-12-27T22:57:13.385Z,15.13
2018-12-27T22:59:41.847Z,15.03
2018-12-27T23:02:10.328Z,15.13
2018-12-27T23:04:39.404Z,17.25
2018-12-27T23:07:07.880Z,15.50
2018-12-27T23:09:36.932Z,15.83
2018-12-27T23:12:05.430Z,17.05
2018-12-27T23:14:34.478Z,15.38
2018-12-27T23:17:03.131Z,13.63
2018-12-27T23:19:31.613Z,15.23
2018-12-27T23:22:00.082Z,17.20
2018-12-27T23:24:28.559Z,14.40
2018-12-27T23:26:57.077Z,15.77
2018-12-27T23:29:25.626Z,13.27
2018-12-27T23:31:54.087Z,15.03
2018-12-27T23:34:22.807Z,16.80
2018-12-27T23:36:51.377Z,14.47
2018-12-27T23:39:19.901Z,16.30
2018-12-27T23:41:48.439Z,15.30
2018-12-27T23:44:16.933Z,16.23
2018-12-27T23:46:45.431Z,15.53
2018-12-27T23:49:13.915Z,16.17
2018-12-27T23:51:42.383Z,14.80
2018-12-27T23:54:10.863Z,15.63
2018-12-27T23:56:39.331Z,18.77
2018-12-27T23:59:07.900Z,15.73
